createdAt,value
2023-02-05T00:03:01.520Z,2.92
2023-02-05T00:06:04.547Z,3.45
2023-02-05T00:09:07.351Z,3.17
2023-02-05T00:12:10.147Z,2.65
2023-02-05T00:15:14.299Z,2.33
2023-02-05T00:18:17.120Z,2.90
2023-02-05T00:21:22.775Z,3.08
2023-02-05T00:24:25.636Z,3.10
2023-02-05T00:27:28.844Z,2.67
2023-02-05T00:30:33.340Z,2.33
2023-02-05T00:33:36.242Z,3.38
2023-02-05T00:36:40.069Z,2.75
2023-02-05T00:39:43.575Z,2.70
2023-02-05T00:42:46.408Z,2.83
2023-02-05T00:45:50.640Z,3.38
2023-02-05T00:48:53.485Z,2.47
2023-02-05T00:51:56.439Z,2.20
2023-02-05T00:54:59.291Z,2.72
2023-02-05T00:58:02.162Z,2.75
2023-02-05T01:01:07.005Z,4.10
2023-02-05T01:04:09.866Z,2.03
2023-02-05T01:07:12.700Z,2.40
2023-02-05T01:10:15.618Z,2.78
2023-02-05T01:13:19.303Z,2.83
2023-02-05T01:16:23.527Z,2.67
2023-02-05T01:19:26.375Z,2.90
2023-02-05T01:22:29.366Z,2.95
2023-02-05T01:25:32.670Z,2.35
2023-02-05T01:28:35.802Z,2.30
2023-02-05T01:31:40.196Z,2.33
2023-02-05T01:34:43.065Z,3.58
2023-02-05T01:37:45.993Z,2.20
2023-02-05T01:40:48.780Z,2.85
2023-02-05T01:44:07.522Z,2.47
2023-02-05T01:47:11.799Z,3.15
2023-02-05T01:50:15.284Z,2.15
2023-02-05T01:53:22.474Z,2.40
2023-02-05T01:56:30.317Z,2.13
2023-02-05T01:59:37.016Z,2.50
2023-02-05T02:02:41.691Z,2.63
2023-02-05T02:05:44.571Z,2.80
2023-02-05T02:08:48.906Z,2.10
2023-02-05T02:11:52.288Z,1.65
2023-02-05T02:14:57.779Z,2.65
2023-02-05T02:18:18.347Z,1.90
2023-02-05T02:21:54.307Z,4.07
2023-02-05T02:25:12.004Z,2.80
2023-02-05T02:28:24.553Z,2.67
2023-02-05T02:31:32.556Z,2.35
2023-02-05T02:34:42.409Z,2.83
2023-02-05T02:37:51.006Z,2.15
2023-02-05T02:40:56.539Z,1.83
2023-02-05T02:44:10.591Z,2.05
2023-02-05T02:47:16.887Z,2.50
2023-02-05T02:50:26.412Z,1.65
2023-02-05T02:53:34.184Z,2.75
2023-02-05T02:56:41.259Z,3.30
2023-02-05T02:59:48.636Z,2.50
2023-02-05T03:02:55.753Z,2.30
2023-02-05T03:06:01.264Z,2.40
2023-02-05T03:09:10.104Z,2.45
2023-02-05T03:12:12.984Z,2.70
2023-02-05T03:15:17.963Z,2.58
2023-02-05T03:18:21.438Z,2.65
2023-02-05T03:21:29.203Z,2.67
2023-02-05T03:24:33.124Z,2.58
2023-02-05T03:27:36.928Z,2.47
2023-02-05T03:30:50.908Z,2.35
2023-02-05T03:34:07.165Z,1.85
2023-02-05T03:37:21.821Z,2.80
2023-02-05T03:40:32.302Z,2.25
2023-02-05T03:43:49.347Z,1.90
2023-02-05T03:47:02.539Z,2.28
2023-02-05T03:50:13.916Z,1.67
2023-02-05T03:53:24.652Z,2.30
2023-02-05T03:56:33.422Z,2.35
2023-02-05T03:59:37.753Z,2.78
2023-02-05T04:02:43.300Z,2.33
2023-02-05T04:05:49.934Z,1.70
2023-02-05T04:08:54.566Z,1.80
2023-02-05T04:11:59.046Z,1.50
2023-02-05T04:15:03.230Z,1.65
2023-02-05T04:18:09.263Z,2.25
2023-02-05T04:21:12.473Z,1.65
2023-02-05T04:24:18.081Z,1.85
2023-02-05T04:27:22.537Z,2.15
2023-02-05T04:30:25.743Z,2.08
2023-02-05T04:33:30.260Z,2.40
2023-02-05T04:36:33.222Z,2.13
2023-02-05T04:39:37.966Z,2.38
2023-02-05T04:42:40.816Z,1.73
2023-02-05T04:45:43.766Z,2.17
2023-02-05T04:48:48.012Z,1.35
2023-02-05T04:51:50.799Z,1.77
2023-02-05T04:54:53.639Z,1.40
2023-02-05T04:57:56.472Z,2.03
2023-02-05T05:00:59.346Z,2.03
2023-02-05T05:04:03.499Z,1.30
2023-02-05T05:07:06.297Z,2.13
2023-02-05T05:10:10.005Z,2.03
2023-02-05T05:13:12.847Z,1.52
2023-02-05T05:16:15.717Z,1.63
2023-02-05T05:19:20.089Z,1.40
2023-02-05T05:22:22.924Z,1.48
2023-02-05T05:25:25.679Z,2.53
2023-02-05T05:28:28.523Z,1.83
2023-02-05T05:31:31.520Z,2.17
2023-02-05T05:34:35.679Z,1.25
2023-02-05T05:37:38.932Z,2.20
2023-02-05T05:40:59.409Z,1.92
2023-02-05T05:44:02.204Z,1.80
2023-02-05T05:47:05.023Z,1.52
2023-02-05T05:50:09.832Z,1.50
2023-02-05T05:53:12.711Z,1.70
2023-02-05T05:56:16.283Z,1.45
2023-02-05T05:59:19.196Z,1.48
2023-02-05T06:02:22.066Z,1.55
2023-02-05T06:05:26.256Z,1.20
2023-02-05T06:08:29.148Z,1.08
2023-02-05T06:11:31.973Z,1.88
2023-02-05T06:14:35.118Z,1.95
2023-02-05T06:17:37.987Z,1.80
2023-02-05T06:20:42.160Z,1.90
2023-02-05T06:23:44.977Z,2.05
2023-02-05T06:26:47.803Z,2.35
2023-02-05T06:29:50.651Z,1.25
2023-02-05T06:32:53.443Z,1.85
2023-02-05T06:35:57.725Z,1.60
2023-02-05T06:39:00.553Z,2.05
2023-02-05T06:42:03.445Z,1.80
2023-02-05T06:45:07.055Z,1.48
2023-02-05T06:48:09.874Z,1.33
2023-02-05T06:51:14.518Z,1.15
2023-02-05T06:54:17.420Z,1.77
2023-02-05T06:57:20.207Z,1.33
2023-02-05T07:00:23.169Z,1.15
2023-02-05T07:03:26.084Z,1.75
2023-02-05T07:06:30.268Z,2.55
2023-02-05T07:09:33.333Z,1.42
2023-02-05T07:12:36.162Z,1.38
2023-02-05T07:15:39.591Z,1.40
2023-02-05T07:18:42.500Z,1.70
2023-02-05T07:21:46.711Z,1.33
2023-02-05T07:24:49.626Z,1.50
2023-02-05T07:27:52.530Z,1.35
2023-02-05T07:30:55.803Z,1.35
2023-02-05T07:33:58.671Z,2.53
2023-02-05T07:37:02.855Z,1.98
2023-02-05T07:40:06.724Z,1.88
2023-02-05T07:43:09.691Z,1.83
2023-02-05T07:46:15.337Z,1.70
2023-02-05T07:49:18.220Z,1.52
2023-02-05T07:52:22.462Z,1.42
2023-02-05T07:55:25.272Z,1.65
2023-02-05T07:58:28.092Z,1.80
2023-02-05T08:01:31.970Z,1.48
2023-02-05T08:04:34.884Z,1.67
2023-02-05T08:07:39.366Z,1.48
2023-02-05T08:10:42.255Z,1.30
2023-02-05T08:13:46.013Z,1.50
2023-02-05T08:16:48.857Z,3.20
2023-02-05T08:19:52.259Z,2.10
2023-02-05T08:22:56.482Z,1.65
2023-02-05T08:26:00.235Z,2.45
2023-02-05T08:29:03.137Z,2.03
2023-02-05T08:32:06.165Z,1.40
2023-02-05T08:35:09.536Z,1.92
2023-02-05T08:38:13.802Z,1.80
2023-02-05T08:41:16.649Z,2.35
2023-02-05T08:44:19.502Z,2.78
2023-02-05T08:47:23.272Z,2.85
2023-02-05T08:50:26.630Z,2.50
2023-02-05T08:53:30.883Z,1.95
2023-02-05T08:56:33.820Z,3.38
2023-02-05T08:59:36.807Z,2.58
2023-02-05T09:02:39.776Z,2.58
2023-02-05T09:05:42.674Z,2.95
2023-02-05T09:08:47.012Z,1.95
2023-02-05T09:11:50.282Z,3.00
2023-02-05T09:14:53.288Z,2.03
2023-02-05T09:17:56.209Z,1.70
2023-02-05T09:20:59.049Z,2.13
2023-02-05T09:24:03.388Z,3.55
2023-02-05T09:27:06.820Z,2.55
2023-02-05T09:30:10.947Z,3.15
2023-02-05T09:33:14.587Z,2.42
2023-02-05T09:36:20.221Z,2.55
2023-02-05T09:39:52.640Z,2.10
2023-02-05T09:42:58.879Z,1.65
2023-02-05T09:46:09.555Z,1.90
2023-02-05T09:49:18.828Z,2.80
2023-02-05T09:52:27.181Z,2.70
2023-02-05T09:55:34.906Z,3.25
2023-02-05T09:58:42.820Z,2.58
2023-02-05T10:01:50.670Z,2.22
2023-02-05T10:04:55.126Z,2.92
2023-02-05T10:08:10.040Z,2.47
2023-02-05T10:11:19.908Z,4.43
2023-02-05T10:14:40.011Z,3.28
2023-02-05T10:17:55.569Z,3.47
2023-02-05T10:21:06.470Z,4.97
2023-02-05T10:24:25.468Z,4.57
2023-02-05T10:27:41.566Z,4.53
2023-02-05T10:30:51.636Z,4.55
2023-02-05T10:34:00.292Z,4.22
2023-02-05T10:40:16.588Z,4.65
2023-02-05T10:43:25.048Z,6.45
2023-02-05T10:46:32.103Z,4.95
2023-02-05T10:49:46.407Z,5.65
2023-02-05T10:52:49.305Z,5.05
2023-02-05T10:55:52.451Z,5.30
2023-02-05T10:58:57.840Z,6.03
2023-02-05T11:02:05.450Z,4.90
2023-02-05T11:05:16.010Z,6.15
2023-02-05T11:08:39.526Z,4.22
2023-02-05T11:11:43.290Z,5.72
2023-02-05T11:14:56.738Z,4.07
2023-02-05T11:18:01.493Z,5.05
2023-02-05T11:21:08.708Z,5.70
2023-02-05T11:24:24.224Z,5.20
2023-02-05T11:27:31.501Z,6.10
2023-02-05T11:30:50.475Z,6.10
2023-02-05T11:34:11.871Z,4.75
2023-02-05T11:37:18.086Z,6.40
2023-02-05T11:40:27.701Z,5.82
2023-02-05T11:43:34.362Z,6.00
2023-02-05T11:46:45.345Z,6.40
2023-02-05T11:49:51.882Z,6.70
2023-02-05T11:52:55.825Z,6.85
2023-02-05T11:56:01.744Z,5.28
2023-02-05T11:59:06.811Z,4.78
2023-02-05T12:02:30.286Z,8.00
2023-02-05T12:05:36.955Z,6.15
2023-02-05T12:08:46.274Z,7.78
2023-02-05T12:12:11.316Z,6.28
2023-02-05T12:15:20.945Z,6.03
2023-02-05T12:18:39.239Z,7.18
2023-02-05T12:21:50.012Z,6.90
2023-02-05T12:25:10.595Z,7.10
2023-02-05T12:28:27.230Z,6.30
2023-02-05T12:31:45.954Z,5.90
2023-02-05T12:35:04.664Z,7.07
2023-02-05T12:38:21.058Z,6.13
2023-02-05T12:41:34.925Z,5.70
2023-02-05T12:44:52.591Z,5.95
2023-02-05T12:48:06.057Z,6.78
2023-02-05T12:51:22.467Z,6.22
2023-02-05T12:54:40.724Z,6.03
2023-02-05T12:57:46.824Z,5.70
2023-02-05T13:00:53.181Z,6.80
2023-02-05T13:04:01.291Z,6.38
2023-02-05T13:07:14.225Z,6.05
2023-02-05T13:10:22.002Z,6.97
2023-02-05T13:13:31.520Z,6.30
2023-02-05T13:16:41.225Z,6.07
2023-02-05T13:19:49.584Z,5.97
2023-02-05T13:23:15.615Z,6.53
2023-02-05T13:26:36.551Z,6.97
2023-02-05T13:29:51.198Z,7.05
2023-02-05T13:32:58.383Z,6.38
2023-02-05T13:36:16.174Z,6.53
2023-02-05T13:39:38.765Z,5.72
2023-02-05T13:43:07.439Z,5.45
2023-02-05T13:46:25.854Z,6.38
2023-02-05T13:49:45.647Z,6.65
2023-02-05T13:53:01.775Z,6.47
2023-02-05T13:56:34.068Z,6.63
2023-02-05T13:59:40.548Z,5.20
2023-02-05T14:02:45.283Z,5.88
2023-02-05T14:05:48.283Z,5.63
2023-02-05T14:08:57.792Z,5.72
2023-02-05T14:12:05.330Z,6.38
2023-02-05T14:15:38.211Z,5.18
2023-02-05T14:18:51.357Z,5.28
2023-02-05T14:22:03.804Z,6.57
2023-02-05T14:26:06.092Z,5.95
2023-02-05T14:29:43.906Z,6.10
2023-02-05T14:33:01.176Z,6.38
2023-02-05T14:36:33.486Z,6.47
2023-02-05T14:39:37.899Z,6.72
2023-02-05T14:42:40.872Z,5.80
2023-02-05T14:45:47.550Z,5.55
2023-02-05T14:48:50.680Z,6.22
2023-02-05T14:51:59.327Z,6.30
2023-02-05T14:55:07.275Z,6.47
2023-02-05T14:58:25.152Z,5.88
2023-02-05T15:01:43.821Z,7.13
2023-02-05T15:04:50.440Z,5.70
2023-02-05T15:08:01.175Z,6.18
2023-02-05T15:11:09.937Z,6.07
2023-02-05T15:14:41.523Z,5.38
2023-02-05T15:17:52.523Z,6.43
2023-02-05T15:20:57.489Z,5.80
2023-02-05T15:24:02.072Z,5.45
2023-02-05T15:27:14.670Z,5.68
2023-02-05T15:30:23.137Z,6.07
2023-02-05T15:33:34.066Z,4.90
2023-02-05T15:36:43.054Z,5.63
2023-02-05T15:39:52.277Z,5.85
2023-02-05T15:42:59.522Z,5.65
2023-02-05T15:46:04.918Z,7.13
2023-02-05T15:49:09.421Z,6.00
2023-02-05T15:52:20.024Z,6.15
2023-02-05T15:55:26.834Z,5.82
2023-02-05T15:58:30.722Z,5.18
2023-02-05T16:01:36.479Z,5.75
2023-02-05T16:04:40.808Z,5.90
2023-02-05T16:07:47.526Z,6.18
2023-02-05T16:10:57.681Z,5.68
2023-02-05T16:14:08.592Z,6.25
2023-02-05T16:17:17.275Z,6.10
2023-02-05T16:20:28.858Z,5.20
2023-02-05T16:23:36.050Z,5.22
2023-02-05T16:26:44.315Z,6.32
2023-02-05T16:29:50.475Z,6.25
2023-02-05T16:32:55.309Z,6.95
2023-02-05T16:36:01.671Z,5.68
2023-02-05T16:39:08.196Z,5.38
2023-02-05T16:42:31.475Z,4.65
2023-02-05T16:45:34.439Z,6.10
2023-02-05T16:48:38.322Z,4.22
2023-02-05T16:51:55.815Z,5.65
2023-02-05T16:54:59.136Z,4.97
2023-02-05T16:58:06.452Z,5.82
2023-02-05T17:01:09.357Z,5.55
2023-02-05T17:04:26.687Z,4.97
2023-02-05T17:07:32.144Z,5.68
2023-02-05T17:10:49.709Z,6.70
2023-02-05T17:13:53.077Z,6.82
2023-02-05T17:16:58.820Z,7.22
2023-02-05T17:20:08.251Z,5.82
2023-02-05T17:23:14.210Z,6.13
2023-02-05T17:26:17.835Z,5.65
2023-02-05T17:29:20.621Z,6.28
2023-02-05T17:32:24.375Z,6.07
2023-02-05T17:35:27.214Z,5.88
2023-02-05T17:38:31.404Z,7.32
2023-02-05T17:41:55.803Z,7.03
2023-02-05T17:44:58.685Z,6.10
2023-02-05T17:48:01.801Z,6.72
2023-02-05T17:51:04.842Z,7.25
2023-02-05T17:54:13.679Z,7.63
2023-02-05T17:57:18.527Z,8.35
2023-02-05T18:00:23.422Z,7.00
2023-02-05T18:03:27.353Z,6.25
2023-02-05T18:06:30.208Z,7.80
2023-02-05T18:09:34.420Z,5.72
2023-02-05T18:12:37.180Z,7.18
2023-02-05T18:15:39.995Z,7.07
2023-02-05T18:18:43.035Z,6.38
2023-02-05T18:21:47.201Z,6.68
2023-02-05T18:24:51.405Z,6.50
2023-02-05T18:27:56.126Z,7.32
2023-02-05T18:31:01.078Z,6.78
2023-02-05T18:34:04.000Z,11.15
2023-02-05T18:37:06.883Z,11.10
2023-02-05T18:40:12.630Z,7.25
2023-02-05T18:43:15.596Z,8.68
2023-02-05T18:46:21.017Z,9.73
2023-02-05T18:49:24.288Z,9.80
2023-02-05T18:52:29.919Z,10.82
2023-02-05T18:55:35.580Z,13.50
2023-02-05T18:58:38.573Z,9.50
2023-02-05T19:01:41.849Z,12.25
2023-02-05T19:04:46.575Z,14.50
2023-02-05T19:07:49.437Z,10.80
2023-02-05T19:10:53.587Z,10.98
2023-02-05T19:13:57.475Z,11.40
2023-02-05T19:17:00.728Z,13.35
2023-02-05T19:20:03.624Z,14.15
2023-02-05T19:23:06.471Z,23.85
2023-02-05T19:26:13.856Z,11.40
2023-02-05T19:29:19.431Z,10.63
2023-02-05T19:32:23.520Z,18.52
2023-02-05T19:35:26.483Z,12.98
2023-02-05T19:38:29.559Z,15.15
2023-02-05T19:41:35.216Z,9.02
2023-02-05T19:44:38.106Z,13.23
2023-02-05T19:47:41.043Z,10.45
2023-02-05T19:50:44.203Z,11.20
2023-02-05T19:53:47.776Z,16.10
2023-02-05T19:56:52.426Z,9.27
2023-02-05T19:59:55.268Z,9.13
2023-02-05T20:02:58.272Z,11.40
2023-02-05T20:06:04.672Z,6.80
2023-02-05T20:09:10.685Z,7.93
2023-02-05T20:12:14.912Z,15.98
2023-02-05T20:15:18.136Z,9.07
2023-02-05T20:18:21.192Z,8.57
2023-02-05T20:21:24.678Z,9.20
2023-02-05T20:24:27.632Z,10.48
2023-02-05T20:27:32.511Z,8.13
2023-02-05T20:30:52.860Z,10.48
2023-02-05T20:33:55.847Z,9.25
2023-02-05T20:37:00.599Z,11.40
2023-02-05T20:40:03.650Z,12.90
2023-02-05T20:43:09.189Z,15.50
2023-02-05T20:46:12.299Z,11.15
2023-02-05T20:49:15.842Z,9.80
2023-02-05T20:52:18.833Z,11.77
2023-02-05T20:55:21.788Z,9.38
2023-02-05T20:58:25.947Z,11.40
2023-02-05T21:01:31.809Z,16.02
2023-02-05T21:04:34.613Z,9.50
2023-02-05T21:07:37.382Z,9.95
2023-02-05T21:10:40.185Z,12.52
2023-02-05T21:13:46.208Z,9.30
2023-02-05T21:16:49.045Z,10.25
2023-02-05T21:19:51.912Z,10.30
2023-02-05T21:22:55.802Z,11.88
2023-02-05T21:25:58.787Z,8.07
2023-02-05T21:29:05.313Z,13.77
2023-02-05T21:32:08.430Z,11.45
2023-02-05T21:35:11.355Z,9.57
2023-02-05T21:38:14.259Z,7.22
2023-02-05T21:41:19.127Z,6.95
2023-02-05T21:44:23.756Z,10.05
2023-02-05T21:47:26.779Z,9.95
2023-02-05T21:50:29.594Z,8.43
2023-02-05T21:53:32.384Z,11.95
2023-02-05T21:56:38.155Z,10.45
2023-02-05T21:59:42.357Z,16.20
2023-02-05T22:02:45.219Z,9.70
2023-02-05T22:05:48.083Z,13.60
2023-02-05T22:08:51.687Z,12.32
2023-02-05T22:11:56.205Z,11.52
2023-02-05T22:15:00.647Z,9.00
2023-02-05T22:18:03.585Z,8.30
2023-02-05T22:21:08.549Z,6.38
2023-02-05T22:24:15.376Z,7.75
2023-02-05T22:27:18.546Z,8.10
2023-02-05T22:30:22.872Z,9.57
2023-02-05T22:33:25.816Z,9.57
2023-02-05T22:36:30.721Z,8.43
2023-02-05T22:39:33.864Z,11.57
2023-02-05T22:42:39.654Z,12.75
2023-02-05T22:45:43.996Z,7.43
2023-02-05T22:48:48.806Z,11.65
2023-02-05T22:51:53.132Z,8.55
2023-02-05T22:54:56.419Z,9.85
2023-02-05T22:57:59.262Z,8.57
2023-02-05T23:01:10.001Z,8.30
2023-02-05T23:04:13.080Z,6.28
2023-02-05T23:07:15.868Z,8.98
2023-02-05T23:10:19.280Z,8.27
2023-02-05T23:13:22.083Z,10.95
2023-02-05T23:16:28.364Z,8.73
2023-02-05T23:19:31.238Z,10.73
2023-02-05T23:22:34.457Z,11.90
2023-02-05T23:25:37.645Z,5.75
2023-02-05T23:28:40.879Z,7.35
2023-02-05T23:31:45.415Z,9.82
2023-02-05T23:34:48.204Z,10.07
2023-02-05T23:37:51.103Z,6.80
2023-02-05T23:40:54.027Z,8.57
2023-02-05T23:43:56.967Z,6.40
2023-02-05T23:47:01.108Z,5.35
2023-02-05T23:50:04.591Z,7.78
2023-02-05T23:53:07.620Z,8.88
2023-02-05T23:56:10.500Z,7.72
2023-02-05T23:59:14.405Z,5.70
